Time,TemperatureF,DewpointF,PressureIn,WindDirection,WindDirectionDegrees,WindSpeedMPH,WindSpeedGustMPH,Humidity,HourlyPrecipIn,Conditions,Clouds,dailyrainin,SolarRadiationWatts/m^2,SoftwareType,DateUTC
2013-05-29 00:02:00,59.0,56.0,-100.00,SW,216,1.0,6.0,89,0.00,,,0.00,0.000000,,2013-05-29 04:02:00,
2013-05-29 00:33:00,60.0,56.0,-100.00,SSW,203,2.0,6.0,88,0.00,,,0.00,0.000000,,2013-05-29 04:33:00,
2013-05-29 00:42:00,60.0,56.0,-100.00,SSW,203,2.0,6.0,88,0.00,,,0.00,0.000000,,2013-05-29 04:42:00,
2013-05-29 00:53:00,60.0,56.0,-100.00,SSW,203,2.0,6.0,88,0.00,,,0.00,0.000000,,2013-05-29 04:53:00,
2013-05-29 01:03:00,60.0,56.0,-100.00,SSW,203,2.0,6.0,88,0.00,,,0.00,0.000000,,2013-05-29 05:03:00,
2013-05-29 01:33:00,59.0,56.0,-100.00,SSW,199,4.0,9.0,90,0.00,,,0.00,0.000000,,2013-05-29 05:33:00,
2013-05-29 01:42:00,59.0,56.0,-100.00,SSW,199,4.0,9.0,90,0.00,,,0.00,0.000000,,2013-05-29 05:42:00,
2013-05-29 01:52:00,59.0,56.0,-100.00,SSW,199,4.0,9.0,90,0.00,,,0.00,0.000000,,2013-05-29 05:52:00,
2013-05-29 02:02:00,59.0,56.0,-100.00,SSW,199,4.0,9.0,90,0.00,,,0.00,0.000000,,2013-05-29 06:02:00,
2013-05-29 02:32:00,58.0,56.0,-100.00,SW,221,4.0,9.0,93,0.00,,,0.00,0.000000,,2013-05-29 06:32:00,
2013-05-29 02:42:00,58.0,56.0,-100.00,SW,221,4.0,9.0,93,0.00,,,0.00,0.000000,,2013-05-29 06:42:00,
2013-05-29 02:52:00,58.0,56.0,-100.00,SW,221,4.0,9.0,93,0.00,,,0.00,0.000000,,2013-05-29 06:52:00,
2013-05-29 03:01:00,58.0,56.0,-100.00,SW,221,4.0,9.0,93,0.00,,,0.00,0.000000,,2013-05-29 07:01:00,
2013-05-29 03:35:00,57.0,55.0,-100.00,SW,232,4.0,9.0,94,0.00,,,0.00,0.000000,,2013-05-29 07:35:00,
2013-05-29 03:42:00,57.0,55.0,-100.00,SW,232,4.0,9.0,94,0.00,,,0.00,0.000000,,2013-05-29 07:42:00,
2013-05-29 03:53:00,57.0,55.0,-100.00,SW,232,4.0,9.0,94,0.00,,,0.00,0.000000,,2013-05-29 07:53:00,
2013-05-29 04:02:00,57.0,55.0,-100.00,SW,232,4.0,9.0,94,0.00,,,0.00,0.000000,,2013-05-29 08:02:00,
2013-05-29 04:32:00,56.0,55.0,-100.00,SSW,205,1.0,6.0,95,0.00,,,0.00,0.000000,,2013-05-29 08:32:00,
2013-05-29 04:42:00,56.0,55.0,-100.00,SSW,205,1.0,6.0,95,0.00,,,0.00,0.000000,,2013-05-29 08:42:00,
2013-05-29 04:52:00,56.0,55.0,-100.00,SSW,205,1.0,6.0,95,0.00,,,0.00,0.000000,,2013-05-29 08:52:00,
2013-05-29 05:01:00,56.0,55.0,-100.00,SSW,205,1.0,6.0,95,0.00,,,0.00,0.000000,,2013-05-29 09:01:00,
2013-05-29 05:33:00,56.0,55.0,-100.00,South,185,0.0,3.0,96,0.00,,,0.00,0.000000,,2013-05-29 09:33:00,
2013-05-29 05:42:00,56.0,55.0,-100.00,South,185,0.0,3.0,96,0.00,,,0.00,0.000000,,2013-05-29 09:42:00,
2013-05-29 05:53:00,56.0,55.0,-100.00,South,185,0.0,3.0,96,0.00,,,0.00,0.000000,,2013-05-29 09:53:00,
2013-05-29 06:03:00,56.0,55.0,-100.00,South,185,0.0,3.0,96,0.00,,,0.00,0.000000,,2013-05-29 10:03:00,
2013-05-29 06:33:00,54.0,53.0,-100.00,SE,138,0.0,3.0,96,0.00,,,0.00,0.000000,,2013-05-29 10:33:00,
2013-05-29 06:42:00,54.0,53.0,-100.00,SE,138,0.0,3.0,96,0.00,,,0.00,0.000000,,2013-05-29 10:42:00,
2013-05-29 06:53:00,54.0,53.0,-100.00,SE,138,0.0,3.0,96,0.00,,,0.00,0.000000,,2013-05-29 10:53:00,
2013-05-29 07:02:00,54.0,53.0,-100.00,SE,138,0.0,3.0,96,0.00,,,0.00,0.000000,,2013-05-29 11:02:00,
2013-05-29 07:32:00,56.0,55.0,-100.00,SE,128,1.0,2.0,97,0.00,,,0.00,6.000000,,2013-05-29 11:32:00,
2013-05-29 07:42:00,56.0,55.0,-100.00,SE,128,1.0,2.0,97,0.00,,,0.00,6.000000,,2013-05-29 11:42:00,
2013-05-29 07:52:00,56.0,55.0,-100.00,SE,128,1.0,2.0,97,0.00,,,0.00,6.000000,,2013-05-29 11:52:00,
2013-05-29 08:01:00,56.0,55.0,-100.00,SE,128,1.0,2.0,97,0.00,,,0.00,6.000000,,2013-05-29 12:01:00,
2013-05-29 08:32:00,61.0,57.0,-100.00,SSE,164,0.0,0.0,86,0.00,,,0.00,107.000000,,2013-05-29 12:32:00,
2013-05-29 08:42:00,61.0,57.0,-100.00,SSE,164,0.0,0.0,86,0.00,,,0.00,107.000000,,2013-05-29 12:42:00,
2013-05-29 08:52:00,61.0,57.0,-100.00,SSE,164,0.0,0.0,86,0.00,,,0.00,107.000000,,2013-05-29 12:52:00,
2013-05-29 09:02:00,61.0,57.0,-100.00,SSE,164,0.0,0.0,86,0.00,,,0.00,107.000000,,2013-05-29 13:02:00,
2013-05-29 09:32:00,67.0,59.0,-100.00,SSW,199,0.0,0.0,76,0.00,,,0.00,305.000000,,2013-05-29 13:32:00,
2013-05-29 09:42:00,67.0,59.0,-100.00,SSW,199,0.0,0.0,76,0.00,,,0.00,305.000000,,2013-05-29 13:42:00,
2013-05-29 09:53:00,67.0,59.0,-100.00,SSW,199,0.0,0.0,76,0.00,,,0.00,305.000000,,2013-05-29 13:53:00,
2013-05-29 10:02:00,67.0,59.0,-100.00,SSW,199,0.0,0.0,76,0.00,,,0.00,305.000000,,2013-05-29 14:02:00,
2013-05-29 10:32:00,71.0,61.0,-100.00,SSW,195,0.0,4.0,71,0.00,,,0.00,596.000000,,2013-05-29 14:32:00,
2013-05-29 10:42:00,71.0,61.0,-100.00,SSW,195,0.0,4.0,71,0.00,,,0.00,596.000000,,2013-05-29 14:42:00,
2013-05-29 10:52:00,71.0,61.0,-100.00,SSW,195,0.0,4.0,71,0.00,,,0.00,596.000000,,2013-05-29 14:52:00,
2013-05-29 11:01:00,71.0,61.0,-100.00,SSW,195,0.0,4.0,71,0.00,,,0.00,596.000000,,2013-05-29 15:01:00,
2013-05-29 11:33:00,72.0,57.0,-100.00,East,79,1.0,5.0,59,0.00,,,0.00,743.000000,,2013-05-29 15:33:00,
2013-05-29 11:43:00,72.0,57.0,-100.00,East,79,1.0,5.0,59,0.00,,,0.00,743.000000,,2013-05-29 15:43:00,
2013-05-29 11:53:00,72.0,57.0,-100.00,East,79,1.0,5.0,59,0.00,,,0.00,743.000000,,2013-05-29 15:53:00,
2013-05-29 12:03:00,72.0,57.0,-100.00,East,79,1.0,5.0,59,0.00,,,0.00,743.000000,,2013-05-29 16:03:00,
2013-05-29 12:33:00,75.0,59.0,-100.00,SSW,195,1.0,8.0,58,0.00,,,0.00,914.000000,,2013-05-29 16:33:00,
2013-05-29 12:42:00,75.0,59.0,-100.00,SSW,195,1.0,8.0,58,0.00,,,0.00,914.000000,,2013-05-29 16:42:00,
2013-05-29 12:52:00,75.0,59.0,-100.00,SSW,195,1.0,8.0,58,0.00,,,0.00,914.000000,,2013-05-29 16:52:00,
2013-05-29 13:02:00,75.0,59.0,-100.00,SSW,195,1.0,8.0,58,0.00,,,0.00,914.000000,,2013-05-29 17:02:00,
2013-05-29 13:32:00,76.0,60.0,-100.00,SSW,203,1.0,5.0,58,0.00,,,0.00,880.000000,,2013-05-29 17:32:00,
2013-05-29 13:43:00,76.0,60.0,-100.00,SSW,203,1.0,5.0,58,0.00,,,0.00,880.000000,,2013-05-29 17:43:00,
2013-05-29 13:52:00,76.0,60.0,-100.00,SSW,203,1.0,5.0,58,0.00,,,0.00,880.000000,,2013-05-29 17:52:00,
2013-05-29 14:01:00,76.0,60.0,-100.00,SSW,203,1.0,5.0,58,0.00,,,0.00,880.000000,,2013-05-29 18:01:00,
2013-05-29 14:32:00,77.0,62.0,-100.00,SW,218,1.0,7.0,59,0.00,,,0.00,1008.000000,,2013-05-29 18:32:00,
2013-05-29 14:42:00,77.0,62.0,-100.00,SW,218,1.0,7.0,59,0.00,,,0.00,1008.000000,,2013-05-29 18:42:00,
2013-05-29 14:52:00,77.0,62.0,-100.00,SW,218,1.0,7.0,59,0.00,,,0.00,1008.000000,,2013-05-29 18:52:00,
2013-05-29 15:02:00,77.0,62.0,-100.00,SW,218,1.0,7.0,59,0.00,,,0.00,1008.000000,,2013-05-29 19:02:00,
2013-05-29 15:32:00,76.0,58.0,-100.00,SSW,210,1.0,6.0,54,0.00,,,0.00,1009.000000,,2013-05-29 19:32:00,
2013-05-29 15:44:00,76.0,58.0,-100.00,SSW,210,1.0,6.0,54,0.00,,,0.00,1009.000000,,2013-05-29 19:44:00,
2013-05-29 15:53:00,76.0,58.0,-100.00,SSW,210,1.0,6.0,54,0.00,,,0.00,1009.000000,,2013-05-29 19:53:00,
2013-05-29 16:03:00,76.0,58.0,-100.00,SSW,210,1.0,6.0,54,0.00,,,0.00,1009.000000,,2013-05-29 20:03:00,
2013-05-29 16:33:00,77.0,59.0,-100.00,SSW,207,1.0,8.0,53,0.00,,,0.00,936.000000,,2013-05-29 20:33:00,
2013-05-29 16:42:00,77.0,59.0,-100.00,SSW,207,1.0,8.0,53,0.00,,,0.00,936.000000,,2013-05-29 20:42:00,
2013-05-29 16:53:00,77.0,59.0,-100.00,SSW,207,1.0,8.0,53,0.00,,,0.00,936.000000,,2013-05-29 20:53:00,
2013-05-29 17:02:00,77.0,59.0,-100.00,SSW,207,1.0,8.0,53,0.00,,,0.00,936.000000,,2013-05-29 21:02:00,
2013-05-29 17:33:00,75.0,59.0,-100.00,SSW,199,2.0,7.0,57,0.00,,,0.00,796.000000,,2013-05-29 21:33:00,
2013-05-29 17:44:00,75.0,59.0,-100.00,SSW,199,2.0,7.0,57,0.00,,,0.00,796.000000,,2013-05-29 21:44:00,
2013-05-29 17:53:00,75.0,59.0,-100.00,SSW,199,2.0,7.0,57,0.00,,,0.00,796.000000,,2013-05-29 21:53:00,
2013-05-29 18:03:00,75.0,59.0,-100.00,SSW,199,2.0,7.0,57,0.00,,,0.00,796.000000,,2013-05-29 22:03:00,
2013-05-29 18:34:00,73.0,55.0,-100.00,SSW,200,1.0,9.0,54,0.00,,,0.00,416.000000,,2013-05-29 22:34:00,
2013-05-29 18:42:00,73.0,55.0,-100.00,SSW,200,1.0,9.0,54,0.00,,,0.00,416.000000,,2013-05-29 22:42:00,
2013-05-29 18:53:00,73.0,55.0,-100.00,SSW,200,1.0,9.0,54,0.00,,,0.00,416.000000,,2013-05-29 22:53:00,
2013-05-29 19:02:00,73.0,55.0,-100.00,SSW,200,1.0,9.0,54,0.00,,,0.00,416.000000,,2013-05-29 23:02:00,
2013-05-29 19:33:00,66.0,50.0,-100.00,South,170,2.0,9.0,56,0.00,,,0.00,369.000000,,2013-05-29 23:33:00,
2013-05-29 19:43:00,66.0,50.0,-100.00,South,170,2.0,9.0,56,0.00,,,0.00,369.000000,,2013-05-29 23:43:00,
2013-05-29 19:53:00,66.0,50.0,-100.00,South,170,2.0,9.0,56,0.00,,,0.00,369.000000,,2013-05-29 23:53:00,
2013-05-29 20:02:00,66.0,50.0,-100.00,South,170,2.0,9.0,56,0.00,,,0.00,369.000000,,2013-05-30 00:02:00,
2013-05-29 20:32:00,61.0,52.0,-100.00,South,185,1.0,7.0,72,0.00,,,0.00,25.000000,,2013-05-30 00:32:00,
2013-05-29 20:42:00,61.0,52.0,-100.00,South,185,1.0,7.0,72,0.00,,,0.00,25.000000,,2013-05-30 00:42:00,
2013-05-29 20:52:00,61.0,52.0,-100.00,South,185,1.0,7.0,72,0.00,,,0.00,25.000000,,2013-05-30 00:52:00,
2013-05-29 21:02:00,61.0,52.0,-100.00,South,185,1.0,7.0,72,0.00,,,0.00,25.000000,,2013-05-30 01:02:00,
2013-05-29 21:32:00,59.0,53.0,-100.00,South,187,1.0,5.0,80,0.00,,,0.00,6.000000,,2013-05-30 01:32:00,
2013-05-29 21:42:00,59.0,53.0,-100.00,South,187,1.0,5.0,80,0.00,,,0.00,6.000000,,2013-05-30 01:42:00,
2013-05-29 21:52:00,59.0,53.0,-100.00,South,187,1.0,5.0,80,0.00,,,0.00,6.000000,,2013-05-30 01:52:00,
2013-05-29 22:01:00,59.0,53.0,-100.00,South,187,1.0,5.0,80,0.00,,,0.00,6.000000,,2013-05-30 02:01:00,
2013-05-29 22:32:00,58.0,53.0,-100.00,SSW,194,1.0,7.0,82,0.00,,,0.00,0.000000,,2013-05-30 02:32:00,
2013-05-29 22:42:00,58.0,53.0,-100.00,SSW,194,1.0,7.0,82,0.00,,,0.00,0.000000,,2013-05-30 02:42:00,
2013-05-29 22:52:00,58.0,53.0,-100.00,SSW,194,1.0,7.0,82,0.00,,,0.00,0.000000,,2013-05-30 02:52:00,
2013-05-29 23:02:00,58.0,53.0,-100.00,SSW,194,1.0,7.0,82,0.00,,,0.00,0.000000,,2013-05-30 03:02:00,
2013-05-29 23:33:00,58.0,53.0,-100.00,SSW,194,1.0,5.0,83,0.00,,,0.00,0.000000,,2013-05-30 03:33:00,
2013-05-29 23:43:00,58.0,53.0,-100.00,SSW,194,1.0,5.0,83,0.00,,,0.00,0.000000,,2013-05-30 03:43:00,
2013-05-29 23:53:00,58.0,53.0,-100.00,SSW,194,1.0,5.0,83,0.00,,,0.00,0.000000,,2013-05-30 03:53:00,